createdAt,value
2019-02-14T00:03:33.886Z,97289.31
2019-02-14T00:06:03.079Z,97293.33
2019-02-14T00:08:32.335Z,97297.60
2019-02-14T00:11:01.879Z,97294.72
2019-02-14T00:13:31.079Z,97288.09
2019-02-14T00:16:00.299Z,97284.92
2019-02-14T00:18:29.572Z,97280.27
2019-02-14T00:20:58.766Z,97281.60
2019-02-14T00:23:28.370Z,97283.69
2019-02-14T00:25:57.623Z,97279.73
2019-02-14T00:28:26.825Z,97284.82
2019-02-14T00:30:56.069Z,97286.74
2019-02-14T00:33:25.264Z,97291.84
2019-02-14T00:35:54.885Z,97281.28
2019-02-14T00:38:24.084Z,97276.68
2019-02-14T00:40:53.347Z,97279.78
2019-02-14T00:43:22.525Z,97276.03
2019-02-14T00:45:51.831Z,97274.59
2019-02-14T00:48:21.296Z,97276.25
2019-02-14T00:50:50.545Z,97272.67
2019-02-14T00:53:19.990Z,97271.95
2019-02-14T00:55:49.275Z,97270.63
2019-02-14T00:58:18.490Z,97272.34
2019-02-14T01:00:47.682Z,97274.87
2019-02-14T01:03:16.923Z,97268.86
2019-02-14T01:05:46.480Z,97273.95
2019-02-14T01:08:15.734Z,97272.83
2019-02-14T01:10:45.244Z,97274.53
2019-02-14T01:13:14.540Z,97270.25
2019-02-14T01:18:33.617Z,97264.05
2019-02-14T01:21:02.828Z,97264.84
2019-02-14T01:23:32.077Z,97260.56
2019-02-14T01:26:01.269Z,97250.17
2019-02-14T01:28:30.809Z,97251.25
2019-02-14T01:31:00.359Z,97249.59
2019-02-14T01:33:29.622Z,97242.05
2019-02-14T01:35:58.817Z,97242.42
2019-02-14T01:38:28.022Z,97237.16
2019-02-14T01:40:57.265Z,97241.69
2019-02-14T01:43:26.449Z,97239.52
2019-02-14T01:45:55.760Z,97240.30
2019-02-14T01:48:25.259Z,97235.08
2019-02-14T01:50:54.796Z,97240.68
2019-02-14T01:53:24.000Z,97234.08
2019-02-14T01:55:53.247Z,97225.33
2019-02-14T01:58:22.845Z,97227.13
2019-02-14T02:00:52.105Z,97225.08
2019-02-14T02:03:21.437Z,97220.44
2019-02-14T02:05:51.160Z,97220.73
2019-02-14T02:08:22.465Z,97213.88
2019-02-14T02:10:51.841Z,97219.73
2019-02-14T02:13:21.094Z,97220.06
2019-02-14T02:15:50.275Z,97209.73
2019-02-14T02:20:56.024Z,97209.91
2019-02-14T02:23:25.264Z,97211.70
2019-02-14T02:25:54.845Z,97216.20
2019-02-14T02:28:24.087Z,97216.41
2019-02-14T02:30:53.276Z,97211.48
2019-02-14T02:33:22.534Z,97215.67
2019-02-14T02:36:00.130Z,97211.98
2019-02-14T02:38:23.083Z,97216.50
2019-02-14T02:40:52.279Z,97216.92
2019-02-14T02:43:21.476Z,97221.34
2019-02-14T02:45:50.778Z,97224.95
2019-02-14T02:48:19.968Z,97224.00
2019-02-14T02:50:49.215Z,97224.98
2019-02-14T02:53:18.764Z,97226.87
2019-02-14T02:55:48.073Z,97231.79
2019-02-14T02:58:17.950Z,97229.17
2019-02-14T03:00:47.202Z,97235.49
2019-02-14T03:03:16.398Z,97228.59
2019-02-14T03:05:45.959Z,97232.83
2019-02-14T03:08:15.174Z,97237.70
2019-02-14T03:10:44.409Z,97237.88
2019-02-14T03:13:13.970Z,97244.62
2019-02-14T03:15:43.174Z,97250.44
2019-02-14T03:18:12.555Z,97260.17
2019-02-14T03:20:41.738Z,97258.30
2019-02-14T03:23:11.014Z,97270.78
2019-02-14T03:25:40.222Z,97266.07
2019-02-14T03:28:09.854Z,97258.04
2019-02-14T03:30:39.051Z,97250.17
2019-02-14T03:33:08.381Z,97256.86
2019-02-14T03:35:37.849Z,97256.87
2019-02-14T03:38:07.375Z,97262.77
2019-02-14T03:40:36.682Z,97259.00
2019-02-14T03:43:05.935Z,97258.89
2019-02-14T03:45:35.197Z,97262.75
2019-02-14T03:48:04.439Z,97263.61
2019-02-14T03:50:33.898Z,97263.61
2019-02-14T03:53:03.148Z,97266.13
2019-02-14T03:55:32.329Z,97263.56
2019-02-14T03:58:08.735Z,97259.82
2019-02-14T04:00:37.918Z,97254.62
2019-02-14T04:03:07.193Z,97253.97
2019-02-14T04:05:36.728Z,97258.16
2019-02-14T04:08:05.918Z,97259.02
2019-02-14T04:10:35.169Z,97264.14
2019-02-14T04:13:04.369Z,97267.41
2019-02-14T04:15:33.613Z,97260.94
2019-02-14T04:18:02.813Z,97259.44
2019-02-14T04:20:32.064Z,97252.62
2019-02-14T04:23:01.268Z,97245.10
2019-02-14T04:25:30.522Z,97241.11
2019-02-14T04:27:59.837Z,97239.52
2019-02-14T04:30:29.423Z,97242.99
2019-02-14T04:32:58.658Z,97241.05
2019-02-14T04:35:28.171Z,97244.39
2019-02-14T04:37:57.734Z,97250.23
2019-02-14T04:40:33.399Z,97261.52
2019-02-14T04:42:57.923Z,97256.82
2019-02-14T04:45:27.175Z,97265.20
2019-02-14T04:47:56.424Z,97267.60
2019-02-14T04:50:25.627Z,97270.55
2019-02-14T04:52:54.888Z,97270.38
2019-02-14T04:55:24.083Z,97272.21
2019-02-14T04:57:53.328Z,97275.37
2019-02-14T05:00:22.871Z,97277.28
2019-02-14T05:02:52.137Z,97281.05
2019-02-14T05:05:21.454Z,97284.28
2019-02-14T05:07:50.649Z,97287.13
2019-02-14T05:10:19.890Z,97280.66
2019-02-14T05:12:49.077Z,97277.52
2019-02-14T05:15:18.330Z,97267.97
2019-02-14T05:17:47.522Z,97279.14
2019-02-14T05:20:16.761Z,97286.89
2019-02-14T05:22:46.259Z,97291.27
2019-02-14T05:25:15.519Z,97286.08
2019-02-14T05:27:44.708Z,97282.78
2019-02-14T05:30:14.180Z,97293.72
2019-02-14T05:32:44.376Z,97291.38
2019-02-14T05:35:13.583Z,97298.70
2019-02-14T05:37:42.837Z,97300.27
2019-02-14T05:40:12.323Z,97297.16
2019-02-14T05:42:41.890Z,97298.41
2019-02-14T05:45:11.523Z,97290.27
2019-02-14T05:47:40.769Z,97295.67
2019-02-14T05:50:10.454Z,97303.87
2019-02-14T05:52:39.699Z,97306.05
2019-02-14T05:55:10.045Z,97300.59
2019-02-14T05:57:39.348Z,97299.84
2019-02-14T06:00:10.589Z,97299.42
2019-02-14T06:02:39.839Z,97304.55
2019-02-14T06:05:09.042Z,97299.09
2019-02-14T06:07:38.229Z,97298.84
2019-02-14T06:10:08.061Z,97306.43
2019-02-14T06:12:37.265Z,97301.59
2019-02-14T06:15:07.252Z,97298.58
2019-02-14T06:17:36.441Z,97295.82
2019-02-14T06:20:05.819Z,97292.30
2019-02-14T06:22:35.006Z,97297.94
2019-02-14T06:25:04.291Z,97299.41
2019-02-14T06:27:33.488Z,97312.36
2019-02-14T06:30:02.746Z,97320.73
2019-02-14T06:32:31.937Z,97324.55
2019-02-14T06:35:01.172Z,97322.88
2019-02-14T06:37:30.356Z,97328.94
2019-02-14T06:39:59.993Z,97335.39
2019-02-14T06:42:29.204Z,97350.55
2019-02-14T06:44:58.508Z,97352.73
2019-02-14T06:47:27.717Z,97348.96
2019-02-14T06:49:56.972Z,97344.28
2019-02-14T06:52:26.183Z,97344.66
2019-02-14T06:54:55.413Z,97338.81
2019-02-14T06:57:24.626Z,97345.66
2019-02-14T06:59:53.893Z,97350.37
2019-02-14T07:02:23.088Z,97344.52
2019-02-14T07:04:52.307Z,97336.95
2019-02-14T07:07:21.527Z,97342.14
2019-02-14T07:09:50.731Z,97344.66
2019-02-14T07:12:19.971Z,97346.55
2019-02-14T07:14:49.162Z,97351.42
2019-02-14T07:17:57.839Z,97353.41
2019-02-14T07:20:27.062Z,97351.05
2019-02-14T07:22:56.373Z,97350.91
2019-02-14T07:25:25.534Z,97341.27
2019-02-14T07:27:54.876Z,97345.82
2019-02-14T07:30:24.189Z,97345.80
2019-02-14T07:32:53.435Z,97360.66
2019-02-14T07:35:22.620Z,97361.98
2019-02-14T07:37:51.871Z,97366.32
2019-02-14T07:40:21.059Z,97370.24
2019-02-14T07:42:50.232Z,97367.08
2019-02-14T07:45:19.545Z,97370.13
2019-02-14T07:47:48.745Z,97357.25
2019-02-14T07:50:17.990Z,97357.16
2019-02-14T07:52:47.186Z,97359.13
2019-02-14T07:55:16.505Z,97363.30
2019-02-14T07:57:45.790Z,97360.30
2019-02-14T08:00:15.178Z,97363.30
2019-02-14T08:02:44.367Z,97357.54
2019-02-14T08:05:13.556Z,97358.00
2019-02-14T08:07:42.838Z,97358.54
2019-02-14T08:10:13.190Z,97358.05
2019-02-14T08:12:42.434Z,97360.94
2019-02-14T08:15:13.121Z,97356.20
2019-02-14T08:17:42.735Z,97355.55
2019-02-14T08:20:12.336Z,97354.06
2019-02-14T08:22:41.938Z,97357.73
2019-02-14T08:25:12.124Z,97348.82
2019-02-14T08:27:41.363Z,97350.78
2019-02-14T08:30:12.710Z,97343.69
2019-02-14T08:32:41.961Z,97347.97
2019-02-14T08:35:11.134Z,97353.27
2019-02-14T08:37:45.487Z,97355.70
2019-02-14T08:40:14.482Z,97360.61
2019-02-14T08:42:43.658Z,97364.55
2019-02-14T08:45:13.023Z,97365.48
2019-02-14T08:47:42.195Z,97365.92
2019-02-14T08:50:11.480Z,97373.16
2019-02-14T08:52:41.007Z,97372.40
2019-02-14T08:55:10.343Z,97367.56
2019-02-14T08:57:39.552Z,97370.30
2019-02-14T09:00:10.614Z,97372.88
2019-02-14T09:02:40.130Z,97372.22
2019-02-14T09:05:09.383Z,97361.59
2019-02-14T09:07:38.588Z,97357.50
2019-02-14T09:10:09.449Z,97365.47
2019-02-14T09:12:38.632Z,97370.27
2019-02-14T09:17:44.054Z,97366.93
2019-02-14T09:20:14.046Z,97364.49
2019-02-14T09:22:43.234Z,97362.76
2019-02-14T09:25:12.510Z,97362.09
2019-02-14T09:27:41.743Z,97364.46
2019-02-14T09:30:11.056Z,97361.78
2019-02-14T09:32:40.312Z,97371.17
2019-02-14T09:35:09.828Z,97362.80
2019-02-14T09:37:39.172Z,97359.70
2019-02-14T09:40:09.696Z,97352.98
2019-02-14T09:42:38.942Z,97351.86
2019-02-14T09:45:09.626Z,97350.65
2019-02-14T09:47:38.882Z,97349.50
2019-02-14T09:50:09.393Z,97345.14
2019-02-14T09:52:38.561Z,97351.84
2019-02-14T09:55:08.120Z,97350.92
2019-02-14T09:57:37.304Z,97347.02
2019-02-14T10:00:08.239Z,97343.86
2019-02-14T10:02:37.461Z,97349.27
2019-02-14T10:05:07.065Z,97358.24
2019-02-14T10:07:36.266Z,97356.79
2019-02-14T10:10:06.696Z,97359.57
2019-02-14T10:12:35.907Z,97362.16
2019-02-14T10:15:44.528Z,97356.72
2019-02-14T10:18:14.040Z,97354.28
2019-02-14T10:20:43.293Z,97362.45
2019-02-14T10:23:13.184Z,97361.69
2019-02-14T10:25:42.655Z,97362.50
2019-02-14T10:28:12.304Z,97357.70
2019-02-14T10:30:41.477Z,97347.23
2019-02-14T10:33:10.840Z,97347.26
2019-02-14T10:35:40.039Z,97348.23
2019-02-14T10:38:09.281Z,97341.67
2019-02-14T10:40:38.486Z,97339.49
2019-02-14T10:43:07.752Z,97333.12
2019-02-14T10:45:37.002Z,97335.21
2019-02-14T10:48:06.264Z,97332.61
2019-02-14T10:50:35.439Z,97328.88
2019-02-14T10:53:04.695Z,97324.05
2019-02-14T10:55:34.262Z,97329.38
2019-02-14T10:58:03.541Z,97333.83
2019-02-14T11:00:32.841Z,97323.61
2019-02-14T11:03:02.098Z,97330.15
2019-02-14T11:05:31.305Z,97320.88
2019-02-14T11:08:00.979Z,97319.53
2019-02-14T11:10:30.195Z,97317.91
2019-02-14T11:12:59.768Z,97310.98
2019-02-14T11:15:29.010Z,97303.97
2019-02-14T11:17:58.537Z,97306.67
2019-02-14T11:20:27.777Z,97299.70
2019-02-14T11:22:56.972Z,97285.75
2019-02-14T11:25:29.011Z,97279.14
2019-02-14T11:27:58.205Z,97286.17
2019-02-14T11:33:01.935Z,97279.59
2019-02-14T11:35:31.207Z,97269.45
2019-02-14T11:38:00.404Z,97271.53
2019-02-14T11:40:29.592Z,97270.77
2019-02-14T11:42:58.830Z,97265.47
2019-02-14T11:46:07.546Z,97262.34
2019-02-14T11:48:36.741Z,97258.88
2019-02-14T11:51:05.925Z,97269.29
2019-02-14T11:53:35.168Z,97265.34
2019-02-14T11:56:04.363Z,97270.24
2019-02-14T11:58:33.604Z,97267.97
2019-02-14T12:01:02.784Z,97264.70
2019-02-14T12:03:32.362Z,97262.86
2019-02-14T12:06:01.570Z,97265.31
2019-02-14T12:08:30.819Z,97266.66
2019-02-14T12:11:00.038Z,97257.30
2019-02-14T12:13:29.270Z,97251.47
2019-02-14T12:15:58.446Z,97249.85
2019-02-14T12:18:27.697Z,97252.68
2019-02-14T12:20:56.880Z,97251.69
2019-02-14T12:23:26.119Z,97255.75
2019-02-14T12:25:55.349Z,97244.37
2019-02-14T12:28:24.541Z,97247.86
2019-02-14T12:30:53.839Z,97251.97
2019-02-14T12:33:23.029Z,97251.06
2019-02-14T12:35:52.298Z,97256.48
2019-02-14T12:38:21.478Z,97259.38
2019-02-14T12:40:50.787Z,97256.39
2019-02-14T12:43:20.082Z,97251.28
2019-02-14T12:45:49.419Z,97252.28
2019-02-14T12:48:18.629Z,97254.73
2019-02-14T12:50:47.909Z,97256.41
2019-02-14T12:53:17.097Z,97253.36
2019-02-14T12:55:47.735Z,97237.45
2019-02-14T12:58:17.255Z,97225.67
2019-02-14T13:00:46.773Z,97219.73
2019-02-14T13:03:16.146Z,97220.20
2019-02-14T13:05:45.453Z,97218.14
2019-02-14T13:08:14.718Z,97218.69
2019-02-14T13:10:43.899Z,97212.41
2019-02-14T13:13:13.180Z,97205.55
2019-02-14T13:15:42.990Z,97203.31
2019-02-14T13:18:12.920Z,97202.54
2019-02-14T13:20:42.113Z,97200.57
2019-02-14T13:23:11.355Z,97194.98
2019-02-14T13:25:40.552Z,97193.31
2019-02-14T13:28:09.796Z,97195.28
2019-02-14T13:30:39.735Z,97192.22
2019-02-14T13:33:09.046Z,97187.98
2019-02-14T13:35:38.287Z,97186.91
2019-02-14T13:38:07.543Z,97186.81
2019-02-14T13:40:36.729Z,97186.45
2019-02-14T13:43:06.272Z,97185.12
2019-02-14T13:45:35.556Z,97190.94
2019-02-14T13:48:04.774Z,97191.30
2019-02-14T13:50:34.039Z,97186.50
2019-02-14T13:53:03.206Z,97189.15
2019-02-14T13:55:32.440Z,97182.80
2019-02-14T13:58:01.617Z,97185.88
2019-02-14T14:00:30.877Z,97190.70
2019-02-14T14:03:00.401Z,97190.95
2019-02-14T14:05:30.008Z,97193.02
2019-02-14T14:07:59.185Z,97186.48
2019-02-14T14:10:28.421Z,97188.72
2019-02-14T14:12:57.725Z,97178.02
2019-02-14T14:18:01.535Z,97191.16
2019-02-14T14:20:31.131Z,97195.45
2019-02-14T14:23:00.315Z,97188.72
2019-02-14T14:25:29.509Z,97183.92
2019-02-14T14:27:58.790Z,97187.95
2019-02-14T14:30:28.339Z,97180.28
2019-02-14T14:32:57.654Z,97188.84
2019-02-14T14:35:26.864Z,97188.11
2019-02-14T14:37:56.182Z,97194.56
2019-02-14T14:40:25.471Z,97194.25
2019-02-14T14:43:13.673Z,97191.72
2019-02-14T14:46:01.842Z,97188.91
2019-02-14T14:48:50.296Z,97177.79
2019-02-14T14:51:19.483Z,97173.80
2019-02-14T14:53:48.732Z,97174.30
2019-02-14T14:56:18.270Z,97168.34
2019-02-14T14:58:47.522Z,97167.73
2019-02-14T15:01:17.070Z,97157.98
2019-02-14T15:03:46.679Z,97155.11
2019-02-14T15:06:15.867Z,97148.08
2019-02-14T15:08:45.430Z,97150.37
2019-02-14T15:11:14.650Z,97149.09
2019-02-14T15:13:43.836Z,97147.05
2019-02-14T15:16:13.077Z,97149.67
2019-02-14T15:18:42.255Z,97151.49
2019-02-14T15:21:11.775Z,97151.08
2019-02-14T15:23:40.957Z,97148.07
2019-02-14T15:26:10.202Z,97144.25
2019-02-14T15:28:39.678Z,97147.14
2019-02-14T15:31:09.288Z,97144.22
2019-02-14T15:33:38.478Z,97147.98
2019-02-14T15:36:07.711Z,97147.55
2019-02-14T15:38:37.174Z,97146.77
2019-02-14T15:41:07.875Z,97145.31
2019-02-14T15:43:37.057Z,97150.62
2019-02-14T15:46:18.015Z,97136.14
2019-02-14T15:48:47.695Z,97139.45
2019-02-14T15:51:18.314Z,97154.14
2019-02-14T15:53:47.825Z,97155.50
2019-02-14T15:56:17.074Z,97172.25
2019-02-14T15:58:46.588Z,97184.50
2019-02-14T16:01:16.586Z,97191.86
2019-02-14T16:03:46.734Z,97193.84
2019-02-14T16:06:16.036Z,97196.23
2019-02-14T16:08:47.153Z,97197.38
2019-02-14T16:11:16.194Z,97195.91
2019-02-14T16:13:45.811Z,97186.05
2019-02-14T16:16:15.005Z,97191.46
2019-02-14T16:18:46.212Z,97190.89
2019-02-14T16:21:15.161Z,97182.83
2019-02-14T16:23:44.414Z,97182.36
2019-02-14T16:26:14.965Z,97183.53
2019-02-14T16:28:44.580Z,97188.45
2019-02-14T16:31:13.766Z,97191.75
2019-02-14T16:33:43.013Z,97196.45
2019-02-14T16:36:12.190Z,97190.09
2019-02-14T16:41:16.621Z,97189.63
2019-02-14T16:43:45.862Z,97197.55
2019-02-14T16:46:15.099Z,97203.59
2019-02-14T16:48:44.335Z,97207.03
2019-02-14T16:51:13.515Z,97216.55
2019-02-14T16:53:42.752Z,97209.83
2019-02-14T16:56:12.046Z,97212.29
2019-02-14T16:58:41.299Z,97204.51
2019-02-14T17:01:10.486Z,97198.30
2019-02-14T17:03:39.666Z,97205.41
2019-02-14T17:08:43.936Z,97198.54
2019-02-14T17:11:13.201Z,97201.67
2019-02-14T17:13:42.367Z,97204.80
2019-02-14T17:16:30.601Z,97200.82
2019-02-14T17:18:59.794Z,97203.95
2019-02-14T17:21:29.032Z,97209.89
2019-02-14T17:23:58.227Z,97217.81
2019-02-14T17:26:27.492Z,97213.92
2019-02-14T17:28:56.976Z,97215.15
2019-02-14T17:31:26.209Z,97222.53
2019-02-14T17:33:55.391Z,97222.12
2019-02-14T17:36:24.640Z,97228.79
2019-02-14T17:38:53.840Z,97236.17
2019-02-14T17:41:23.068Z,97237.55
2019-02-14T17:43:52.313Z,97237.74
2019-02-14T17:46:21.536Z,97232.08
2019-02-14T17:48:51.072Z,97239.84
2019-02-14T17:51:20.278Z,97235.16
2019-02-14T17:53:49.628Z,97238.27
2019-02-14T17:56:18.804Z,97238.56
2019-02-14T17:58:48.034Z,97236.63
2019-02-14T18:01:17.229Z,97247.56
2019-02-14T18:03:46.485Z,97248.66
2019-02-14T18:06:15.681Z,97252.34
2019-02-14T18:08:44.914Z,97250.80
2019-02-14T18:11:14.111Z,97255.53
2019-02-14T18:13:43.368Z,97245.33
2019-02-14T18:16:12.684Z,97245.70
2019-02-14T18:18:42.261Z,97248.05
2019-02-14T18:21:11.849Z,97243.39
2019-02-14T18:23:41.369Z,97250.06
2019-02-14T18:26:10.620Z,97250.52
2019-02-14T18:28:39.832Z,97242.84
2019-02-14T18:31:09.476Z,97241.50
2019-02-14T18:33:38.661Z,97245.19
2019-02-14T18:36:07.909Z,97241.29
2019-02-14T18:38:37.101Z,97231.01
2019-02-14T18:41:06.358Z,97227.24
2019-02-14T18:43:35.605Z,97225.30
2019-02-14T18:46:04.901Z,97217.16
2019-02-14T18:48:34.098Z,97208.87
2019-02-14T18:51:03.382Z,97205.10
2019-02-14T18:53:32.588Z,97202.59
2019-02-14T18:56:01.778Z,97203.81
2019-02-14T18:58:31.373Z,97201.09
2019-02-14T19:01:00.562Z,97196.32
2019-02-14T19:03:29.804Z,97197.81
2019-02-14T19:05:59.010Z,97201.30
2019-02-14T19:08:28.260Z,97199.75
2019-02-14T19:10:57.768Z,97202.59
2019-02-14T19:13:27.366Z,97201.98
2019-02-14T19:15:56.558Z,97202.52
2019-02-14T19:18:25.815Z,97201.38
2019-02-14T19:20:55.327Z,97210.80
2019-02-14T19:23:24.620Z,97215.80
2019-02-14T19:25:54.485Z,97214.11
2019-02-14T19:28:23.742Z,97215.34
2019-02-14T19:30:52.945Z,97217.56
2019-02-14T19:33:22.526Z,97211.84
2019-02-14T19:35:51.727Z,97216.39
2019-02-14T19:38:20.920Z,97220.14
2019-02-14T19:40:50.179Z,97225.31
2019-02-14T19:43:19.389Z,97217.22
2019-02-14T19:45:48.696Z,97219.41
2019-02-14T19:48:17.874Z,97213.20
2019-02-14T19:50:47.224Z,97208.02
2019-02-14T19:53:16.374Z,97209.95
2019-02-14T19:55:45.635Z,97215.00
2019-02-14T19:58:14.835Z,97216.48
2019-02-14T20:00:44.027Z,97215.52
2019-02-14T20:03:13.571Z,97224.17
2019-02-14T20:05:42.815Z,97228.13
2019-02-14T20:08:12.055Z,97222.02
2019-02-14T20:10:41.263Z,97227.22
2019-02-14T20:13:10.518Z,97221.20
2019-02-14T20:15:39.710Z,97218.97
2019-02-14T20:18:08.963Z,97213.42
2019-02-14T20:20:38.285Z,97217.55
2019-02-14T20:23:07.729Z,97208.31
2019-02-14T20:25:37.284Z,97214.10
2019-02-14T20:28:06.544Z,97215.12
2019-02-14T20:30:35.741Z,97216.08
2019-02-14T20:33:05.228Z,97207.10
2019-02-14T20:35:35.974Z,97206.94
2019-02-14T20:38:05.189Z,97206.57
2019-02-14T20:40:34.425Z,97202.29
2019-02-14T20:43:03.626Z,97207.08
2019-02-14T20:45:32.937Z,97207.08
2019-02-14T20:48:02.147Z,97201.67
2019-02-14T20:50:31.385Z,97212.48
2019-02-14T20:53:00.587Z,97205.00
2019-02-14T20:55:29.844Z,97207.52
2019-02-14T20:57:59.040Z,97207.11
2019-02-14T21:00:29.262Z,97205.11
2019-02-14T21:02:58.482Z,97207.85
2019-02-14T21:05:27.748Z,97208.15
2019-02-14T21:07:56.950Z,97206.34
2019-02-14T21:10:26.156Z,97209.46
2019-02-14T21:12:55.393Z,97210.44
2019-02-14T21:15:24.589Z,97208.73
2019-02-14T21:17:53.847Z,97206.16
2019-02-14T21:20:23.084Z,97197.19
2019-02-14T21:22:52.322Z,97195.93
2019-02-14T21:25:23.406Z,97192.98
2019-02-14T21:27:53.252Z,97197.80
2019-02-14T21:30:22.482Z,97202.52
2019-02-14T21:32:51.711Z,97201.89
2019-02-14T21:35:20.997Z,97204.41
2019-02-14T21:37:50.226Z,97201.80
2019-02-14T21:40:19.437Z,97207.97
2019-02-14T21:42:48.721Z,97208.75
2019-02-14T21:45:17.959Z,97208.22
2019-02-14T21:47:47.407Z,97212.59
2019-02-14T21:50:16.624Z,97217.00
2019-02-14T21:52:46.138Z,97215.61
2019-02-14T21:55:15.360Z,97218.95
2019-02-14T21:57:44.585Z,97220.67
2019-02-14T22:00:16.317Z,97211.02
2019-02-14T22:02:46.032Z,97206.61
2019-02-14T22:05:15.640Z,97204.44
2019-02-14T22:07:44.836Z,97201.30
2019-02-14T22:10:14.125Z,97202.46
2019-02-14T22:12:44.180Z,97202.14
2019-02-14T22:15:15.777Z,97197.95
2019-02-14T22:17:45.045Z,97196.84
2019-02-14T22:20:14.381Z,97194.89
2019-02-14T22:22:43.586Z,97198.13
2019-02-14T22:25:12.881Z,97190.55
2019-02-14T22:28:21.742Z,97197.22
2019-02-14T22:30:51.261Z,97206.09
2019-02-14T22:33:20.746Z,97204.65
2019-02-14T22:35:50.335Z,97215.47
2019-02-14T22:38:19.525Z,97216.25
2019-02-14T22:40:48.759Z,97217.91
2019-02-14T22:43:17.963Z,97213.75
2019-02-14T22:45:47.637Z,97211.03
2019-02-14T22:48:16.842Z,97210.41
2019-02-14T22:50:46.089Z,97204.73
2019-02-14T22:53:15.380Z,97203.47
2019-02-14T22:55:44.937Z,97196.23
2019-02-14T22:58:14.143Z,97198.44
2019-02-14T23:01:02.591Z,97200.95
2019-02-14T23:03:31.797Z,97201.69
2019-02-14T23:06:01.042Z,97201.66
2019-02-14T23:08:30.233Z,97207.45
2019-02-14T23:10:59.500Z,97204.23
2019-02-14T23:13:28.688Z,97207.34
2019-02-14T23:15:57.887Z,97207.60
2019-02-14T23:18:27.891Z,97203.53
2019-02-14T23:20:57.097Z,97202.47
2019-02-14T23:23:26.340Z,97196.78
2019-02-14T23:25:55.836Z,97197.36
2019-02-14T23:28:25.089Z,97196.87
2019-02-14T23:30:54.283Z,97203.16
2019-02-14T23:33:23.532Z,97201.23
2019-02-14T23:35:52.846Z,97196.36
2019-02-14T23:38:22.094Z,97204.47
2019-02-14T23:40:51.576Z,97198.05
2019-02-14T23:43:21.228Z,97196.10
2019-02-14T23:45:50.808Z,97192.60
2019-02-14T23:48:20.427Z,97187.34
2019-02-14T23:50:49.625Z,97184.80
2019-02-14T23:53:18.883Z,97186.63
2019-02-14T23:55:48.087Z,97186.13
2019-02-14T23:58:17.292Z,97183.13
